Time;durP1;ratioP1;P1;durP2;ratioP2;P2;SDS_P1;SDS_P2;PMS_P1;PMS_P2;Temp;Humidity;BMP_temperature;BMP_pressure;BME280_temperature;BME280_humidity;BME280_pressure;Samples;Min_cycle;Max_cycle;Signal;HPM_P1;HPM_P2
2021/05/19 00:00:55;;;;;;;18.25;7.03;;;;;;;;;;5006544;28;20124;-57
2021/05/19 00:03:20;;;;;;;14.60;6.80;;;;;;;;;;5007011;28;20038;-58
2021/05/19 00:05:47;;;;;;;12.25;5.93;;;;;;;;;;5008653;28;20033;-57
2021/05/19 00:08:12;;;;;;;10.98;5.30;;;;;;;;;;4991636;28;20029;-58
2021/05/19 00:10:38;;;;;;;13.60;5.95;;;;;;;;;;5025317;28;20049;-57
2021/05/19 00:13:04;;;;;;;17.67;6.53;;;;;;;;;;5026960;28;20078;-58
2021/05/19 00:15:30;;;;;;;17.67;6.15;;;;;;;;;;5026478;28;20412;-58
2021/05/19 00:18:00;;;;;;;20.00;6.32;;;;;;;;;;5025555;28;20052;-59
2021/05/19 00:20:28;;;;;;;16.65;7.10;;;;;;;;;;5026232;28;20037;-57
2021/05/19 00:22:54;;;;;;;15.63;6.78;;;;;;;;;;5010667;28;20632;-57
2021/05/19 00:25:21;;;;;;;14.30;5.95;;;;;;;;;;5010224;28;20037;-57
2021/05/19 00:27:48;;;;;;;14.38;6.35;;;;;;;;;;5027015;28;20060;-57
2021/05/19 00:30:17;;;;;;;20.98;7.40;;;;;;;;;;4976149;28;20072;-58
2021/05/19 00:32:45;;;;;;;21.98;7.90;;;;;;;;;;5011277;28;20155;-57
2021/05/19 00:35:11;;;;;;;21.95;7.90;;;;;;;;;;5010097;28;20760;-59
2021/05/19 00:37:36;;;;;;;18.90;6.80;;;;;;;;;;5009615;28;20028;-58
2021/05/19 00:40:02;;;;;;;24.25;8.10;;;;;;;;;;5027092;28;20487;-58
2021/05/19 00:42:30;;;;;;;17.45;6.85;;;;;;;;;;5006794;28;20628;-57
2021/05/19 00:44:56;;;;;;;25.88;8.85;;;;;;;;;;5024353;28;20040;-59
2021/05/19 00:47:31;;;;;;;23.67;7.60;;;;;;;;;;5027247;28;20044;-57
2021/05/19 00:49:56;;;;;;;23.40;7.80;;;;;;;;;;4993742;28;20066;-58
2021/05/19 00:52:22;;;;;;;16.63;6.15;;;;;;;;;;5007115;28;22065;-58
2021/05/19 00:54:50;;;;;;;14.98;7.55;;;;;;;;;;5010339;28;20215;-57
2021/05/19 00:57:15;;;;;;;13.82;6.45;;;;;;;;;;5008527;28;20095;-58
2021/05/19 00:59:44;;;;;;;14.90;6.88;;;;;;;;;;5011968;28;20085;-58
2021/05/19 01:02:12;;;;;;;16.13;6.82;;;;;;;;;;5009376;28;20503;-58
2021/05/19 01:04:41;;;;;;;18.70;7.03;;;;;;;;;;5029933;28;20036;-58
2021/05/19 01:07:19;;;;;;;15.85;7.25;;;;;;;;;;5031260;28;20152;-59
2021/05/19 01:09:44;;;;;;;18.95;7.20;;;;;;;;;;5031701;28;20057;-57
2021/05/19 01:12:14;;;;;;;11.75;6.07;;;;;;;;;;5026384;28;20041;-58
2021/05/19 01:14:42;;;;;;;20.42;8.00;;;;;;;;;;5032817;28;20155;-58
2021/05/19 01:17:13;;;;;;;15.73;5.10;;;;;;;;;;5011339;28;20037;-58
2021/05/19 01:19:43;;;;;;;15.73;6.35;;;;;;;;;;5012413;28;20036;-58
2021/05/19 01:22:28;;;;;;;18.55;6.10;;;;;;;;;;5012691;28;20051;-58
2021/05/19 01:24:54;;;;;;;16.38;7.15;;;;;;;;;;5011071;28;20035;-58
2021/05/19 01:27:23;;;;;;;22.67;7.85;;;;;;;;;;5030225;28;20040;-59
2021/05/19 01:29:52;;;;;;;24.63;6.78;;;;;;;;;;5030806;28;20158;-58
2021/05/19 01:32:21;;;;;;;26.63;8.23;;;;;;;;;;5030977;28;20529;-57
2021/05/19 01:34:49;;;;;;;22.10;8.57;;;;;;;;;;5012711;28;20479;-59
2021/05/19 01:37:15;;;;;;;19.08;7.72;;;;;;;;;;5029160;28;20527;-59
2021/05/19 01:39:44;;;;;;;23.85;7.68;;;;;;;;;;5014506;28;20632;-57
2021/05/19 01:42:10;;;;;;;18.02;7.57;;;;;;;;;;5028248;28;20937;-58
2021/05/19 01:44:36;;;;;;;24.48;8.20;;;;;;;;;;5030886;28;20147;-58
2021/05/19 01:47:03;;;;;;;20.63;7.43;;;;;;;;;;5031984;28;20145;-58
2021/05/19 01:49:32;;;;;;;20.88;7.15;;;;;;;;;;5009550;28;21510;-58
2021/05/19 01:51:59;;;;;;;22.50;8.52;;;;;;;;;;5031088;28;20029;-58
2021/05/19 01:54:29;;;;;;;18.25;8.50;;;;;;;;;;5012311;28;20033;-58
2021/05/19 01:56:55;;;;;;;18.58;7.25;;;;;;;;;;5028246;28;20055;-58
2021/05/19 01:59:24;;;;;;;18.13;7.50;;;;;;;;;;5030596;28;20582;-58
2021/05/19 02:01:49;;;;;;;19.95;7.15;;;;;;;;;;5027939;28;20040;-57
2021/05/19 02:04:17;;;;;;;16.40;7.10;;;;;;;;;;5029477;28;20028;-57
2021/05/19 02:06:55;;;;;;;14.38;8.10;;;;;;;;;;5009537;28;20079;-57
2021/05/19 02:09:20;;;;;;;20.48;8.13;;;;;;;;;;5031058;28;20074;-58
2021/05/19 02:11:49;;;;;;;15.05;6.57;;;;;;;;;;5027616;28;20036;-58
2021/05/19 02:14:15;;;;;;;21.48;7.35;;;;;;;;;;5029127;28;20039;-58
2021/05/19 02:16:45;;;;;;;19.13;7.05;;;;;;;;;;5014993;28;20043;-57
2021/05/19 02:19:11;;;;;;;17.77;7.20;;;;;;;;;;5030740;28;20112;-58
2021/05/19 02:21:47;;;;;;;19.15;7.10;;;;;;;;;;5027265;28;20025;-57
2021/05/19 02:24:15;;;;;;;25.75;7.22;;;;;;;;;;5010526;28;20048;-57
2021/05/19 02:26:41;;;;;;;21.83;7.60;;;;;;;;;;5008382;28;20156;-57
2021/05/19 02:29:10;;;;;;;22.42;7.93;;;;;;;;;;5011202;28;20080;-57
2021/05/19 02:31:37;;;;;;;28.58;8.95;;;;;;;;;;5030262;28;20033;-57
2021/05/19 02:34:03;;;;;;;27.23;9.02;;;;;;;;;;5011416;28;20548;-57
2021/05/19 02:36:29;;;;;;;27.55;8.20;;;;;;;;;;5029477;28;20519;-58
2021/05/19 02:38:57;;;;;;;32.25;9.70;;;;;;;;;;5028764;28;20041;-57
2021/05/19 02:41:25;;;;;;;34.92;10.02;;;;;;;;;;5029122;28;20028;-60
2021/05/19 02:43:51;;;;;;;25.10;9.25;;;;;;;;;;5010743;28;20043;-59
2021/05/19 02:46:17;;;;;;;41.78;10.23;;;;;;;;;;4993410;28;20037;-58
2021/05/19 02:48:42;;;;;;;29.38;9.52;;;;;;;;;;5011151;28;20086;-57
2021/05/19 02:51:12;;;;;;;35.47;11.30;;;;;;;;;;5029529;28;20460;-61
2021/05/19 02:53:42;;;;;;;34.08;9.95;;;;;;;;;;5010573;28;20682;-57
2021/05/19 02:56:10;;;;;;;33.45;9.63;;;;;;;;;;5009514;28;20252;-58
2021/05/19 02:58:36;;;;;;;30.92;9.60;;;;;;;;;;5031821;28;20079;-57
2021/05/19 03:01:02;;;;;;;24.92;10.27;;;;;;;;;;5029977;28;20176;-57
2021/05/19 03:03:27;;;;;;;33.38;9.32;;;;;;;;;;5024264;28;20056;-58
2021/05/19 03:05:53;;;;;;;29.10;9.70;;;;;;;;;;5029610;28;20164;-58
2021/05/19 03:08:19;;;;;;;27.90;8.63;;;;;;;;;;5028357;28;20032;-57
2021/05/19 03:10:44;;;;;;;32.40;9.27;;;;;;;;;;5011389;28;20045;-58
2021/05/19 03:13:12;;;;;;;32.42;9.40;;;;;;;;;;5011362;28;20404;-58
2021/05/19 03:15:43;;;;;;;30.80;10.02;;;;;;;;;;4978628;28;20460;-57
2021/05/19 03:18:08;;;;;;;30.50;9.55;;;;;;;;;;5013361;28;20642;-58
2021/05/19 03:20:36;;;;;;;31.02;10.55;;;;;;;;;;5007913;28;20036;-57
2021/05/19 03:23:02;;;;;;;35.33;10.48;;;;;;;;;;5028510;28;20083;-57
2021/05/19 03:25:30;;;;;;;27.30;9.73;;;;;;;;;;5024214;28;21185;-58
2021/05/19 03:27:55;;;;;;;34.05;10.77;;;;;;;;;;5008788;28;20045;-58
2021/05/19 03:30:21;;;;;;;33.90;10.50;;;;;;;;;;5026609;28;20167;-58
2021/05/19 03:32:47;;;;;;;36.08;10.55;;;;;;;;;;5011198;28;20072;-57
2021/05/19 03:35:15;;;;;;;29.35;8.38;;;;;;;;;;4992964;28;20060;-57
2021/05/19 03:37:41;;;;;;;22.73;9.20;;;;;;;;;;5029076;28;21715;-57
2021/05/19 03:40:08;;;;;;;32.00;9.68;;;;;;;;;;5008055;28;20082;-59
2021/05/19 03:42:33;;;;;;;31.17;9.25;;;;;;;;;;5028355;28;20044;-58
2021/05/19 03:44:59;;;;;;;25.08;9.82;;;;;;;;;;5011381;28;20036;-57
2021/05/19 03:47:27;;;;;;;28.60;9.63;;;;;;;;;;5009624;28;20037;-57
2021/05/19 03:49:53;;;;;;;26.73;9.40;;;;;;;;;;5008815;28;20043;-58
2021/05/19 03:52:18;;;;;;;29.35;9.75;;;;;;;;;;5011802;28;20025;-56
2021/05/19 03:54:44;;;;;;;28.52;9.65;;;;;;;;;;5010393;28;20904;-57
2021/05/19 03:57:12;;;;;;;26.17;9.07;;;;;;;;;;5026476;28;20549;-58
2021/05/19 03:59:38;;;;;;;30.40;8.70;;;;;;;;;;5009624;28;20117;-57
2021/05/19 04:02:04;;;;;;;28.05;9.13;;;;;;;;;;5009297;28;20478;-59
2021/05/19 04:04:29;;;;;;;24.65;9.10;;;;;;;;;;5011898;28;20060;-57
2021/05/19 04:06:55;;;;;;;28.40;8.65;;;;;;;;;;5008953;28;20025;-57
2021/05/19 04:09:20;;;;;;;25.40;9.32;;;;;;;;;;5028032;28;21030;-58
2021/05/19 04:11:48;;;;;;;28.63;8.73;;;;;;;;;;4992101;28;20029;-57
2021/05/19 04:14:14;;;;;;;26.80;8.93;;;;;;;;;;5009634;28;20697;-57
2021/05/19 04:16:42;;;;;;;23.13;9.15;;;;;;;;;;5012806;28;20041;-57
2021/05/19 04:19:08;;;;;;;27.08;8.77;;;;;;;;;;5027123;28;20373;-56
2021/05/19 04:21:33;;;;;;;36.15;8.93;;;;;;;;;;4996293;28;20057;-58
2021/05/19 04:24:01;;;;;;;31.27;10.27;;;;;;;;;;5008660;28;20926;-58
2021/05/19 04:26:27;;;;;;;30.70;8.95;;;;;;;;;;5003371;28;20047;-57
2021/05/19 04:28:53;;;;;;;30.55;10.20;;;;;;;;;;5029311;28;20053;-57
2021/05/19 04:31:18;;;;;;;22.92;9.68;;;;;;;;;;5003636;28;20075;-57
2021/05/19 04:33:44;;;;;;;24.55;9.63;;;;;;;;;;5011114;28;20061;-58
2021/05/19 04:36:10;;;;;;;26.85;9.50;;;;;;;;;;5005836;28;20040;-57
2021/05/19 04:38:35;;;;;;;20.65;9.15;;;;;;;;;;5009129;28;20025;-58
2021/05/19 04:41:01;;;;;;;21.95;9.23;;;;;;;;;;5031112;28;20618;-57
2021/05/19 04:43:29;;;;;;;20.20;8.15;;;;;;;;;;5012746;28;20025;-58
2021/05/19 04:45:54;;;;;;;20.08;8.18;;;;;;;;;;5009176;28;20362;-58
2021/05/19 04:48:20;;;;;;;20.92;9.07;;;;;;;;;;5033800;28;20039;-57
2021/05/19 04:50:47;;;;;;;20.25;8.60;;;;;;;;;;5030906;28;20056;-57
2021/05/19 04:53:13;;;;;;;18.35;8.10;;;;;;;;;;5013017;28;20037;-58
2021/05/19 04:55:38;;;;;;;19.20;8.40;;;;;;;;;;4994408;28;20055;-58
2021/05/19 04:58:07;;;;;;;21.30;9.13;;;;;;;;;;5011283;28;20514;-57
2021/05/19 05:00:37;;;;;;;22.05;9.50;;;;;;;;;;5028844;28;20068;-57
2021/05/19 05:03:02;;;;;;;21.25;9.88;;;;;;;;;;5009322;28;20101;-58
2021/05/19 05:05:32;;;;;;;21.80;10.10;;;;;;;;;;5027939;28;20033;-57
2021/05/19 05:07:57;;;;;;;18.00;8.80;;;;;;;;;;5029823;28;20289;-58
2021/05/19 05:10:24;;;;;;;18.83;10.05;;;;;;;;;;5028175;28;20063;-57
2021/05/19 05:12:50;;;;;;;22.13;8.35;;;;;;;;;;4993371;28;20036;-58
2021/05/19 05:15:18;;;;;;;28.73;9.38;;;;;;;;;;5028397;28;20044;-57
2021/05/19 05:17:43;;;;;;;21.42;10.05;;;;;;;;;;5009800;28;20029;-57
2021/05/19 05:20:10;;;;;;;17.67;9.00;;;;;;;;;;5028669;28;20372;-57
2021/05/19 05:22:36;;;;;;;20.48;8.23;;;;;;;;;;5027581;28;20029;-58
2021/05/19 05:25:03;;;;;;;23.42;8.77;;;;;;;;;;5027852;28;20107;-58
2021/05/19 05:27:31;;;;;;;21.27;9.20;;;;;;;;;;5026196;28;20067;-57
2021/05/19 05:29:57;;;;;;;23.25;9.75;;;;;;;;;;5025607;28;20147;-58
2021/05/19 05:32:25;;;;;;;22.20;9.32;;;;;;;;;;5022598;28;20041;-57
2021/05/19 05:34:53;;;;;;;25.73;9.55;;;;;;;;;;5022590;28;20037;-58
2021/05/19 05:37:22;;;;;;;25.08;10.13;;;;;;;;;;5005188;28;20041;-58
2021/05/19 05:43:31;;;;;;;16.92;8.40;;;;;;;;;;5018217;28;20146;-58
2021/05/19 05:45:56;;;;;;;17.15;8.93;;;;;;;;;;5019821;28;20068;-58
2021/05/19 05:48:22;;;;;;;26.65;9.75;;;;;;;;;;5001549;28;20764;-58
2021/05/19 05:50:49;;;;;;;19.55;9.38;;;;;;;;;;5011740;28;20056;-59
2021/05/19 05:53:16;;;;;;;16.23;8.57;;;;;;;;;;4995898;28;20031;-58
2021/05/19 05:55:42;;;;;;;14.90;6.88;;;;;;;;;;5012418;28;20096;-58
2021/05/19 05:58:08;;;;;;;13.95;7.40;;;;;;;;;;5011761;28;20174;-57
2021/05/19 06:00:36;;;;;;;11.50;6.32;;;;;;;;;;4998582;28;20032;-58
2021/05/19 06:03:03;;;;;;;14.23;6.03;;;;;;;;;;5029767;28;20128;-59
2021/05/19 06:05:32;;;;;;;10.05;6.47;;;;;;;;;;5005911;28;20116;-58
2021/05/19 06:08:01;;;;;;;9.52;5.90;;;;;;;;;;5026108;28;20783;-59
2021/05/19 06:10:27;;;;;;;14.45;6.85;;;;;;;;;;5026781;28;20056;-58
2021/05/19 06:12:53;;;;;;;10.40;6.13;;;;;;;;;;5020821;28;20048;-58
2021/05/19 06:15:18;;;;;;;13.30;5.93;;;;;;;;;;5029523;28;20048;-58
2021/05/19 06:17:44;;;;;;;11.48;6.63;;;;;;;;;;5010819;28;20127;-57
2021/05/19 06:20:10;;;;;;;10.13;6.00;;;;;;;;;;5013148;28;20032;-58
2021/05/19 06:22:37;;;;;;;7.50;5.75;;;;;;;;;;5031205;28;20151;-58
2021/05/19 06:25:06;;;;;;;12.50;5.82;;;;;;;;;;5030978;28;20021;-58
2021/05/19 06:27:31;;;;;;;10.15;5.20;;;;;;;;;;4992937;28;20060;-58
2021/05/19 06:29:57;;;;;;;8.25;5.32;;;;;;;;;;5012233;28;21003;-59
2021/05/19 06:32:22;;;;;;;7.70;5.32;;;;;;;;;;5027925;28;20033;-58
2021/05/19 06:34:48;;;;;;;10.32;5.53;;;;;;;;;;5008265;28;20642;-58
2021/05/19 06:37:14;;;;;;;9.55;5.90;;;;;;;;;;5025451;28;20600;-57
2021/05/19 06:39:44;;;;;;;11.77;5.63;;;;;;;;;;5026760;28;20024;-58
2021/05/19 06:42:10;;;;;;;8.38;5.50;;;;;;;;;;5023295;28;20017;-58
2021/05/19 06:44:35;;;;;;;10.45;5.55;;;;;;;;;;5012154;28;20550;-58
2021/05/19 06:47:02;;;;;;;8.25;5.10;;;;;;;;;;5028830;28;20033;-60
2021/05/19 06:49:27;;;;;;;11.45;6.22;;;;;;;;;;5028424;28;20035;-58
2021/05/19 06:51:53;;;;;;;10.43;5.55;;;;;;;;;;5029524;28;20038;-59
2021/05/19 06:54:19;;;;;;;8.60;5.50;;;;;;;;;;5013147;28;20037;-57
2021/05/19 06:56:45;;;;;;;13.07;5.85;;;;;;;;;;5026584;28;20612;-57
2021/05/19 06:59:21;;;;;;;10.63;5.80;;;;;;;;;;4994812;28;20119;-58
2021/05/19 07:01:47;;;;;;;13.05;6.25;;;;;;;;;;5009050;28;20510;-58
2021/05/19 07:04:13;;;;;;;12.75;5.85;;;;;;;;;;5011327;28;20032;-58
2021/05/19 07:06:39;;;;;;;9.45;6.20;;;;;;;;;;5026960;28;20479;-58
2021/05/19 07:09:10;;;;;;;11.15;6.13;;;;;;;;;;5029844;28;20419;-58
2021/05/19 07:11:38;;;;;;;10.32;6.63;;;;;;;;;;5006166;28;20036;-59
2021/05/19 07:14:05;;;;;;;11.82;6.90;;;;;;;;;;5028121;28;20116;-59
2021/05/19 07:16:36;;;;;;;10.75;6.40;;;;;;;;;;5028776;28;20028;-62
2021/05/19 07:19:04;;;;;;;12.60;7.18;;;;;;;;;;5009482;28;20160;-59
2021/05/19 07:21:29;;;;;;;12.02;7.22;;;;;;;;;;5027971;28;20525;-58
2021/05/19 07:23:56;;;;;;;12.85;6.90;;;;;;;;;;4991609;28;20029;-58
2021/05/19 07:26:25;;;;;;;13.63;7.13;;;;;;;;;;4978979;28;20033;-58
2021/05/19 07:28:52;;;;;;;13.75;8.05;;;;;;;;;;4994220;28;20348;-59
2021/05/19 07:31:18;;;;;;;14.27;7.97;;;;;;;;;;5028538;28;20094;-57
2021/05/19 07:33:47;;;;;;;11.32;7.00;;;;;;;;;;5027851;28;20044;-58
2021/05/19 07:36:13;;;;;;;15.27;8.00;;;;;;;;;;5012686;28;20048;-58
2021/05/19 07:38:39;;;;;;;12.07;7.70;;;;;;;;;;5027216;28;20029;-58
2021/05/19 07:41:07;;;;;;;14.65;8.02;;;;;;;;;;5025556;28;20482;-60
2021/05/19 07:43:33;;;;;;;11.73;7.63;;;;;;;;;;5008886;28;20381;-57
2021/05/19 07:45:59;;;;;;;16.30;8.07;;;;;;;;;;5021650;28;20032;-59
2021/05/19 07:48:24;;;;;;;14.77;8.73;;;;;;;;;;5006595;28;21117;-58
2021/05/19 07:50:50;;;;;;;16.63;8.40;;;;;;;;;;5007600;28;20036;-59
2021/05/19 07:53:15;;;;;;;17.73;8.55;;;;;;;;;;5027683;28;20021;-59
2021/05/19 07:58:36;;;;;;;15.85;9.40;;;;;;;;;;5008434;28;20127;-58
2021/05/19 08:03:53;;;;;;;22.80;10.27;;;;;;;;;;5026836;28;20031;-59
2021/05/19 08:06:24;;;;;;;20.75;9.50;;;;;;;;;;5026603;28;20047;-59
2021/05/19 08:09:05;;;;;;;17.65;9.88;;;;;;;;;;5011263;28;20033;-59
2021/05/19 08:11:32;;;;;;;16.92;11.35;;;;;;;;;;5026861;28;20673;-59
2021/05/19 08:13:58;;;;;;;16.50;9.93;;;;;;;;;;5028190;28;20033;-60
2021/05/19 08:16:23;;;;;;;17.25;9.88;;;;;;;;;;5025380;28;20078;-58
2021/05/19 08:18:51;;;;;;;16.33;10.02;;;;;;;;;;5009296;28;20655;-58
2021/05/19 08:21:19;;;;;;;18.17;10.25;;;;;;;;;;5027309;28;20107;-58
2021/05/19 08:23:46;;;;;;;21.10;10.52;;;;;;;;;;5027772;28;20029;-59
2021/05/19 08:26:11;;;;;;;20.88;10.95;;;;;;;;;;5029336;28;20033;-58
2021/05/19 08:28:37;;;;;;;17.42;10.13;;;;;;;;;;5013875;28;21089;-58
2021/05/19 08:31:05;;;;;;;18.75;9.65;;;;;;;;;;5006416;28;20383;-60
2021/05/19 08:33:31;;;;;;;16.90;10.27;;;;;;;;;;5004810;28;20037;-58
2021/05/19 08:36:00;;;;;;;17.15;9.15;;;;;;;;;;5008849;28;20108;-59
2021/05/19 08:38:25;;;;;;;15.65;8.80;;;;;;;;;;5010924;28;20175;-58
2021/05/19 08:40:51;;;;;;;17.65;8.63;;;;;;;;;;5025951;28;20024;-59
2021/05/19 08:43:19;;;;;;;18.02;8.25;;;;;;;;;;5026539;28;20284;-59
2021/05/19 08:45:46;;;;;;;12.80;7.68;;;;;;;;;;4994425;28;20041;-59
2021/05/19 08:48:11;;;;;;;11.13;7.45;;;;;;;;;;4992604;28;20041;-57
2021/05/19 08:50:38;;;;;;;9.65;6.15;;;;;;;;;;5028544;28;20200;-59
2021/05/19 08:53:08;;;;;;;13.98;5.68;;;;;;;;;;5024541;28;20482;-60
2021/05/19 08:55:34;;;;;;;8.55;5.68;;;;;;;;;;5009046;28;20364;-57
2021/05/19 08:58:00;;;;;;;8.88;4.95;;;;;;;;;;5009261;28;20039;-59
2021/05/19 09:00:28;;;;;;;15.18;5.30;;;;;;;;;;5009571;28;20032;-59
2021/05/19 09:03:10;;;;;;;9.63;4.30;;;;;;;;;;5020893;28;20207;-60
2021/05/19 09:05:41;;;;;;;8.43;4.90;;;;;;;;;;5026403;28;20400;-60
2021/05/19 09:08:17;;;;;;;7.13;4.63;;;;;;;;;;5026345;28;20021;-59
2021/05/19 09:10:59;;;;;;;10.18;4.88;;;;;;;;;;5009606;28;20049;-59
2021/05/19 09:13:50;;;;;;;8.55;5.18;;;;;;;;;;5024892;28;20041;-60
2021/05/19 09:16:31;;;;;;;6.55;4.25;;;;;;;;;;5021461;28;20090;-59
2021/05/19 09:18:58;;;;;;;8.35;4.70;;;;;;;;;;5024135;28;22244;-58
2021/05/19 09:21:29;;;;;;;7.50;4.78;;;;;;;;;;5007389;28;20041;-61
2021/05/19 09:23:55;;;;;;;5.78;4.00;;;;;;;;;;5022956;28;20116;-59
2021/05/19 09:26:23;;;;;;;5.38;4.85;;;;;;;;;;5030561;28;20048;-60
2021/05/19 09:28:51;;;;;;;8.35;4.63;;;;;;;;;;5012394;28;20083;-59
2021/05/19 09:31:24;;;;;;;7.20;4.90;;;;;;;;;;5027794;28;20021;-60
2021/05/19 09:33:51;;;;;;;7.57;5.13;;;;;;;;;;4986644;28;20606;-58
2021/05/19 09:36:20;;;;;;;4.72;3.67;;;;;;;;;;5029450;28;20064;-58
2021/05/19 09:38:50;;;;;;;8.18;4.60;;;;;;;;;;5029612;28;20075;-57
2021/05/19 09:41:19;;;;;;;9.70;3.53;;;;;;;;;;5029969;28;20621;-58
2021/05/19 09:43:45;;;;;;;2.80;1.38;;;;;;;;;;5030167;28;20042;-58
2021/05/19 09:46:26;;;;;;;8.10;2.05;;;;;;;;;;5031379;28;20561;-59
2021/05/19 09:49:11;;;;;;;10.65;1.52;;;;;;;;;;5012740;28;20602;-59
2021/05/19 09:51:40;;;;;;;1.48;0.75;;;;;;;;;;5008340;28;20037;-59
2021/05/19 09:54:22;;;;;;;2.38;1.10;;;;;;;;;;5011530;28;20090;-56
2021/05/19 09:56:55;;;;;;;1.08;0.98;;;;;;;;;;5009476;28;20033;-58
2021/05/19 09:59:24;;;;;;;2.75;1.67;;;;;;;;;;5027590;28;20009;-58
2021/05/19 10:01:51;;;;;;;3.22;1.00;;;;;;;;;;5029025;28;21050;-59
2021/05/19 10:04:25;;;;;;;2.90;0.90;;;;;;;;;;5031852;28;20678;-59
2021/05/19 10:06:53;;;;;;;2.40;0.60;;;;;;;;;;5011591;28;20033;-61
2021/05/19 10:09:19;;;;;;;0.40;0.38;;;;;;;;;;5013384;28;20086;-59
2021/05/19 10:11:45;;;;;;;0.55;0.40;;;;;;;;;;5002513;28;20045;-60
2021/05/19 10:14:15;;;;;;;2.47;1.80;;;;;;;;;;5012869;28;20044;-60
2021/05/19 10:16:44;;;;;;;6.57;4.43;;;;;;;;;;5011894;28;20029;-59
2021/05/19 10:19:17;;;;;;;9.93;4.85;;;;;;;;;;5025974;28;20045;-58
2021/05/19 10:21:45;;;;;;;9.50;5.15;;;;;;;;;;5012575;28;20065;-60
2021/05/19 10:24:14;;;;;;;4.25;3.00;;;;;;;;;;5027585;28;20039;-61
2021/05/19 10:26:59;;;;;;;5.25;3.10;;;;;;;;;;4995323;28;20037;-60
2021/05/19 10:29:44;;;;;;;3.72;1.88;;;;;;;;;;5028779;28;20447;-61
2021/05/19 10:32:28;;;;;;;1.90;1.33;;;;;;;;;;5005572;28;20068;-60
2021/05/19 10:35:19;;;;;;;1.67;0.95;;;;;;;;;;5030804;28;20041;-60
2021/05/19 10:37:56;;;;;;;5.60;1.30;;;;;;;;;;5029699;28;20979;-61
2021/05/19 10:40:24;;;;;;;4.10;0.85;;;;;;;;;;4993446;28;20625;-60
2021/05/19 10:43:07;;;;;;;0.98;0.80;;;;;;;;;;5011388;28;20646;-59
2021/05/19 10:45:33;;;;;;;;;;;;;;;;;;5028845;28;20070;-60
2021/05/19 10:48:24;;;;;;;0.68;0.60;;;;;;;;;;5025313;28;19920;-60
2021/05/19 10:50:59;;;;;;;0.90;0.70;;;;;;;;;;5007577;28;20029;-59
2021/05/19 10:59:11;;;;;;;1.27;0.90;;;;;;;;;;5028349;28;20025;-60
2021/05/19 11:01:40;;;;;;;1.77;1.10;;;;;;;;;;5025807;28;20731;-58
2021/05/19 11:04:16;;;;;;;2.45;1.00;;;;;;;;;;4993330;28;20052;-61
2021/05/19 11:07:04;;;;;;;1.08;0.90;;;;;;;;;;5023590;28;20062;-60
2021/05/19 11:09:42;;;;;;;7.70;2.58;;;;;;;;;;5029040;28;20091;-59
2021/05/19 11:12:22;;;;;;;18.38;4.63;;;;;;;;;;5008257;28;20515;-58
2021/05/19 11:15:04;;;;;;;17.55;4.93;;;;;;;;;;5025011;28;20082;-59
2021/05/19 11:17:47;;;;;;;6.93;4.07;;;;;;;;;;5010384;28;20056;-58
2021/05/19 11:20:13;;;;;;;6.85;4.80;;;;;;;;;;5025389;28;20029;-57
2021/05/19 11:22:40;;;;;;;6.95;4.93;;;;;;;;;;5010583;28;20059;-57
2021/05/19 11:25:06;;;;;;;9.25;4.30;;;;;;;;;;5010006;28;20125;-57
2021/05/19 11:27:35;;;;;;;9.35;4.30;;;;;;;;;;4993491;28;20165;-57
2021/05/19 11:30:02;;;;;;;7.15;4.68;;;;;;;;;;5026286;28;20082;-57
2021/05/19 11:32:31;;;;;;;7.43;4.03;;;;;;;;;;5008376;28;20021;-56
2021/05/19 11:35:20;;;;;;;5.43;3.42;;;;;;;;;;5022912;28;20033;-58
2021/05/19 11:37:54;;;;;;;11.43;3.80;;;;;;;;;;5018246;28;20056;-57
2021/05/19 11:40:20;;;;;;;9.40;3.97;;;;;;;;;;5010814;28;20029;-57
2021/05/19 11:42:55;;;;;;;8.18;3.92;;;;;;;;;;5030063;28;20025;-57
2021/05/19 11:45:25;;;;;;;10.20;4.15;;;;;;;;;;5026972;28;20033;-58
2021/05/19 11:47:53;;;;;;;7.47;3.70;;;;;;;;;;5008616;28;20515;-57
2021/05/19 11:50:24;;;;;;;8.45;4.28;;;;;;;;;;5029317;28;20767;-58
2021/05/19 11:52:57;;;;;;;5.07;3.90;;;;;;;;;;5028603;28;20407;-58
2021/05/19 11:55:27;;;;;;;6.70;3.80;;;;;;;;;;5029515;28;20029;-59
2021/05/19 11:58:09;;;;;;;7.05;3.95;;;;;;;;;;5027427;28;20770;-58
2021/05/19 12:00:38;;;;;;;5.97;4.43;;;;;;;;;;5028138;28;20040;-58
2021/05/19 12:03:04;;;;;;;6.00;3.80;;;;;;;;;;5025767;28;20036;-58
2021/05/19 12:05:49;;;;;;;8.35;4.05;;;;;;;;;;4991913;28;20037;-59
2021/05/19 12:08:20;;;;;;;7.90;3.85;;;;;;;;;;5026958;28;21130;-61
2021/05/19 12:10:46;;;;;;;7.72;4.07;;;;;;;;;;5029137;28;20090;-60
2021/05/19 12:13:15;;;;;;;15.27;3.95;;;;;;;;;;5026082;28;20050;-59
2021/05/19 12:15:46;;;;;;;4.30;3.30;;;;;;;;;;5027039;28;20032;-58
2021/05/19 12:18:11;;;;;;;6.53;4.10;;;;;;;;;;5021209;28;20430;-59
2021/05/19 12:20:38;;;;;;;4.10;3.22;;;;;;;;;;5028627;28;20037;-59
2021/05/19 12:23:05;;;;;;;4.20;3.13;;;;;;;;;;5010341;28;20033;-59
2021/05/19 12:25:36;;;;;;;6.25;3.35;;;;;;;;;;4994732;28;20035;-59
2021/05/19 12:28:07;;;;;;;7.93;3.78;;;;;;;;;;5027968;28;20041;-60
2021/05/19 12:30:49;;;;;;;6.40;3.45;;;;;;;;;;5010799;28;20041;-59
2021/05/19 12:33:19;;;;;;;5.00;2.97;;;;;;;;;;5003876;28;20044;-59
2021/05/19 12:35:46;;;;;;;5.68;3.30;;;;;;;;;;5007999;28;20044;-58
2021/05/19 12:38:16;;;;;;;5.30;3.30;;;;;;;;;;5005833;28;20036;-59
2021/05/19 12:40:45;;;;;;;4.90;3.38;;;;;;;;;;5029429;28;20036;-60
2021/05/19 12:43:20;;;;;;;5.10;3.28;;;;;;;;;;5007717;28;20151;-58
2021/05/19 12:45:50;;;;;;;5.28;3.17;;;;;;;;;;5009451;28;20663;-59
2021/05/19 12:48:17;;;;;;;5.15;3.58;;;;;;;;;;5010961;28;20926;-59
2021/05/19 12:50:48;;;;;;;7.25;3.38;;;;;;;;;;5010871;28;20926;-60
2021/05/19 12:53:36;;;;;;;7.32;3.55;;;;;;;;;;5028307;28;20068;-59
2021/05/19 12:56:11;;;;;;;6.07;3.53;;;;;;;;;;5026497;28;20037;-59
2021/05/19 12:58:56;;;;;;;6.25;3.33;;;;;;;;;;5027872;28;20120;-58
2021/05/19 13:01:22;;;;;;;5.75;3.08;;;;;;;;;;5012520;28;20740;-59
2021/05/19 13:03:47;;;;;;;5.30;2.92;;;;;;;;;;5010559;28;20047;-59
2021/05/19 13:06:16;;;;;;;6.10;2.85;;;;;;;;;;5012643;28;20025;-59
2021/05/19 13:08:53;;;;;;;5.72;3.45;;;;;;;;;;5031703;28;20035;-62
2021/05/19 13:11:22;;;;;;;4.05;2.97;;;;;;;;;;5015130;28;20075;-60
2021/05/19 13:13:48;;;;;;;5.15;2.75;;;;;;;;;;5009254;28;20045;-58
2021/05/19 13:16:18;;;;;;;7.10;3.28;;;;;;;;;;5012430;28;20087;-58
2021/05/19 13:18:57;;;;;;;6.18;3.17;;;;;;;;;;5026929;28;20033;-58
2021/05/19 13:21:27;;;;;;;4.22;3.13;;;;;;;;;;5030173;28;20029;-59
2021/05/19 13:23:59;;;;;;;7.10;3.40;;;;;;;;;;5013645;28;20044;-60
2021/05/19 13:26:27;;;;;;;7.65;3.97;;;;;;;;;;5030755;28;20033;-59
2021/05/19 13:28:54;;;;;;;9.20;4.22;;;;;;;;;;5030990;28;20120;-59
2021/05/19 13:31:21;;;;;;;6.88;3.53;;;;;;;;;;5013741;28;20029;-59
2021/05/19 13:37:00;;;;;;;4.13;2.85;;;;;;;;;;5011067;28;20583;-58
2021/05/19 13:39:14;;;;;;;5.55;3.33;;;;;;;;;;5008756;28;20599;-59
2021/05/19 13:41:42;;;;;;;7.53;3.10;;;;;;;;;;5030030;28;20024;-59
2021/05/19 13:44:11;;;;;;;7.40;3.92;;;;;;;;;;5028296;28;20148;-59
2021/05/19 13:46:43;;;;;;;6.32;3.03;;;;;;;;;;5012449;28;21958;-58
2021/05/19 13:49:17;;;;;;;5.82;3.00;;;;;;;;;;5031740;28;21005;-58
2021/05/19 13:51:43;;;;;;;6.90;3.38;;;;;;;;;;5014336;28;21988;-57
2021/05/19 13:54:08;;;;;;;4.53;2.63;;;;;;;;;;4978795;28;20123;-57
2021/05/19 13:56:34;;;;;;;4.40;2.92;;;;;;;;;;5011002;28;20040;-58
2021/05/19 13:59:00;;;;;;;4.88;2.75;;;;;;;;;;5032068;28;20029;-57
2021/05/19 14:01:25;;;;;;;2.70;2.08;;;;;;;;;;5012117;28;20091;-58
2021/05/19 14:03:52;;;;;;;3.63;2.17;;;;;;;;;;4995358;28;20025;-59
2021/05/19 14:06:17;;;;;;;5.45;2.13;;;;;;;;;;5018786;28;20029;-58
2021/05/19 14:08:43;;;;;;;2.58;1.88;;;;;;;;;;5027517;28;21911;-59
2021/05/19 14:11:15;;;;;;;3.97;1.98;;;;;;;;;;5008956;28;20582;-58
2021/05/19 14:13:49;;;;;;;2.40;1.67;;;;;;;;;;5003664;28;20078;-60
2021/05/19 14:19:39;;;;;;;2.22;1.75;;;;;;;;;;5030246;28;20041;-58
2021/05/19 14:27:43;;;;;;;2.28;1.15;;;;;;;;;;5014128;28;20980;-60
2021/05/19 14:30:10;;;;;;;0.98;0.75;;;;;;;;;;5023455;28;20033;-58
2021/05/19 14:32:36;;;;;;;1.65;0.90;;;;;;;;;;5023358;28;20033;-59
2021/05/19 14:35:05;;;;;;;1.83;1.13;;;;;;;;;;5013435;28;20549;-59
2021/05/19 15:01:38;;;;;;;2.00;0.70;;;;;;;;;;5015206;28;20183;-59
2021/05/19 15:04:06;;;;;;;0.73;0.73;;;;;;;;;;5003345;28;20938;-59
2021/05/19 15:06:32;;;;;;;0.70;0.60;;;;;;;;;;4999193;28;20029;-60
2021/05/19 15:08:58;;;;;;;3.50;1.10;;;;;;;;;;5019583;28;20060;-58
2021/05/19 15:11:24;;;;;;;1.02;0.70;;;;;;;;;;5016261;28;20305;-59
2021/05/19 15:13:49;;;;;;;2.15;0.93;;;;;;;;;;4996766;28;20041;-59
2021/05/19 15:16:19;;;;;;;1.05;0.95;;;;;;;;;;5002141;28;20052;-59
2021/05/19 15:18:45;;;;;;;1.20;1.10;;;;;;;;;;5002501;28;20025;-58
2021/05/19 15:21:10;;;;;;;1.70;0.90;;;;;;;;;;5003384;28;20028;-59
2021/05/19 15:23:38;;;;;;;2.67;1.00;;;;;;;;;;4999250;28;20115;-58
2021/05/19 15:26:04;;;;;;;1.02;0.90;;;;;;;;;;4997627;28;20586;-61
2021/05/19 15:28:30;;;;;;;1.50;1.40;;;;;;;;;;5015214;28;20047;-60
2021/05/19 15:30:57;;;;;;;1.98;1.23;;;;;;;;;;4994361;28;20039;-59
2021/05/19 15:33:23;;;;;;;1.50;1.05;;;;;;;;;;5001440;28;20029;-60
2021/05/19 15:35:53;;;;;;;1.15;1.13;;;;;;;;;;5002053;28;20033;-58